sensor_id;sensor_type;location;lat;lon;timestamp;P1;durP1;ratioP1;P2;durP2;ratioP2
74967;SDS011;63523;51.880;12.630;2023-08-06T00:01:37;6.97;;;2.70;;
74967;SDS011;63523;51.880;12.630;2023-08-06T00:04:02;5.60;;;2.63;;
74967;SDS011;63523;51.880;12.630;2023-08-06T00:06:27;6.90;;;2.57;;
74967;SDS011;63523;51.880;12.630;2023-08-06T00:08:53;6.68;;;2.85;;
74967;SDS011;63523;51.880;12.630;2023-08-06T00:11:19;6.80;;;2.77;;
74967;SDS011;63523;51.880;12.630;2023-08-06T00:13:45;5.70;;;2.65;;
74967;SDS011;63523;51.880;12.630;2023-08-06T00:16:10;5.77;;;2.40;;
74967;SDS011;63523;51.880;12.630;2023-08-06T00:18:37;6.03;;;3.10;;
74967;SDS011;63523;51.880;12.630;2023-08-06T00:21:02;6.80;;;3.00;;
74967;SDS011;63523;51.880;12.630;2023-08-06T00:23:27;6.33;;;2.87;;
74967;SDS011;63523;51.880;12.630;2023-08-06T00:25:53;6.23;;;2.80;;
74967;SDS011;63523;51.880;12.630;2023-08-06T00:28:18;5.57;;;2.90;;
74967;SDS011;63523;51.880;12.630;2023-08-06T00:30:43;5.07;;;2.73;;
74967;SDS011;63523;51.880;12.630;2023-08-06T00:33:09;6.88;;;3.10;;
74967;SDS011;63523;51.880;12.630;2023-08-06T00:35:34;6.27;;;3.03;;
74967;SDS011;63523;51.880;12.630;2023-08-06T00:37:59;6.50;;;2.80;;
74967;SDS011;63523;51.880;12.630;2023-08-06T00:40:25;7.23;;;3.00;;
74967;SDS011;63523;51.880;12.630;2023-08-06T00:42:50;7.17;;;3.00;;
74967;SDS011;63523;51.880;12.630;2023-08-06T00:45:15;7.20;;;3.30;;
74967;SDS011;63523;51.880;12.630;2023-08-06T00:47:41;6.45;;;2.85;;
74967;SDS011;63523;51.880;12.630;2023-08-06T00:50:07;6.63;;;3.10;;
74967;SDS011;63523;51.880;12.630;2023-08-06T00:52:33;6.63;;;3.25;;
74967;SDS011;63523;51.880;12.630;2023-08-06T00:54:59;6.30;;;2.80;;
74967;SDS011;63523;51.880;12.630;2023-08-06T00:57:25;5.78;;;2.47;;
74967;SDS011;63523;51.880;12.630;2023-08-06T00:59:53;5.77;;;2.80;;
74967;SDS011;63523;51.880;12.630;2023-08-06T01:02:19;6.43;;;2.67;;
74967;SDS011;63523;51.880;12.630;2023-08-06T01:04:44;5.87;;;2.87;;
74967;SDS011;63523;51.880;12.630;2023-08-06T01:09:52;6.65;;;3.13;;
74967;SDS011;63523;51.880;12.630;2023-08-06T01:17:31;8.10;;;3.43;;
74967;SDS011;63523;51.880;12.630;2023-08-06T01:19:56;5.43;;;2.92;;
74967;SDS011;63523;51.880;12.630;2023-08-06T01:22:22;5.73;;;2.70;;
74967;SDS011;63523;51.880;12.630;2023-08-06T01:24:48;6.17;;;2.90;;
74967;SDS011;63523;51.880;12.630;2023-08-06T01:27:16;6.80;;;2.80;;
74967;SDS011;63523;51.880;12.630;2023-08-06T01:29:49;5.53;;;2.53;;
74967;SDS011;63523;51.880;12.630;2023-08-06T01:32:24;5.87;;;2.93;;
74967;SDS011;63523;51.880;12.630;2023-08-06T01:34:51;5.82;;;2.70;;
74967;SDS011;63523;51.880;12.630;2023-08-06T01:37:17;5.72;;;3.03;;
74967;SDS011;63523;51.880;12.630;2023-08-06T01:39:43;7.63;;;2.97;;
74967;SDS011;63523;51.880;12.630;2023-08-06T01:42:08;5.95;;;2.92;;
74967;SDS011;63523;51.880;12.630;2023-08-06T01:44:34;5.50;;;2.83;;
74967;SDS011;63523;51.880;12.630;2023-08-06T01:46:59;6.90;;;3.00;;
74967;SDS011;63523;51.880;12.630;2023-08-06T01:49:24;6.63;;;3.23;;
74967;SDS011;63523;51.880;12.630;2023-08-06T01:51:50;6.00;;;3.07;;
74967;SDS011;63523;51.880;12.630;2023-08-06T01:54:15;8.50;;;3.37;;
74967;SDS011;63523;51.880;12.630;2023-08-06T01:56:40;7.13;;;3.43;;
74967;SDS011;63523;51.880;12.630;2023-08-06T01:59:06;7.28;;;3.60;;
74967;SDS011;63523;51.880;12.630;2023-08-06T02:01:31;6.73;;;3.10;;
74967;SDS011;63523;51.880;12.630;2023-08-06T02:03:56;9.83;;;3.47;;
74967;SDS011;63523;51.880;12.630;2023-08-06T02:06:22;7.30;;;3.37;;
74967;SDS011;63523;51.880;12.630;2023-08-06T02:08:47;6.57;;;3.20;;
74967;SDS011;63523;51.880;12.630;2023-08-06T02:11:12;7.03;;;3.40;;
74967;SDS011;63523;51.880;12.630;2023-08-06T02:13:38;7.47;;;3.67;;
74967;SDS011;63523;51.880;12.630;2023-08-06T02:16:03;6.63;;;3.35;;
74967;SDS011;63523;51.880;12.630;2023-08-06T02:18:28;6.97;;;3.87;;
74967;SDS011;63523;51.880;12.630;2023-08-06T02:21:00;6.67;;;3.37;;
74967;SDS011;63523;51.880;12.630;2023-08-06T02:23:25;6.50;;;3.65;;
74967;SDS011;63523;51.880;12.630;2023-08-06T02:26:01;6.90;;;3.77;;
74967;SDS011;63523;51.880;12.630;2023-08-06T02:28:27;9.57;;;3.75;;
74967;SDS011;63523;51.880;12.630;2023-08-06T02:30:53;6.60;;;3.85;;
74967;SDS011;63523;51.880;12.630;2023-08-06T02:33:18;5.87;;;3.30;;
74967;SDS011;63523;51.880;12.630;2023-08-06T02:35:43;8.50;;;3.90;;
74967;SDS011;63523;51.880;12.630;2023-08-06T02:38:08;7.47;;;3.70;;
74967;SDS011;63523;51.880;12.630;2023-08-06T02:40:34;7.00;;;3.77;;
74967;SDS011;63523;51.880;12.630;2023-08-06T02:42:59;7.38;;;4.10;;
74967;SDS011;63523;51.880;12.630;2023-08-06T02:45:24;7.40;;;4.00;;
74967;SDS011;63523;51.880;12.630;2023-08-06T02:47:50;8.30;;;4.00;;
74967;SDS011;63523;51.880;12.630;2023-08-06T02:50:15;6.60;;;3.90;;
74967;SDS011;63523;51.880;12.630;2023-08-06T02:52:40;8.23;;;4.00;;
74967;SDS011;63523;51.880;12.630;2023-08-06T02:55:06;7.90;;;3.80;;
74967;SDS011;63523;51.880;12.630;2023-08-06T02:57:31;6.60;;;3.80;;
74967;SDS011;63523;51.880;12.630;2023-08-06T02:59:57;7.23;;;4.00;;
74967;SDS011;63523;51.880;12.630;2023-08-06T03:02:22;8.73;;;4.20;;
74967;SDS011;63523;51.880;12.630;2023-08-06T03:04:47;6.63;;;3.70;;
74967;SDS011;63523;51.880;12.630;2023-08-06T03:07:13;7.57;;;4.73;;
74967;SDS011;63523;51.880;12.630;2023-08-06T03:09:38;7.82;;;4.63;;
74967;SDS011;63523;51.880;12.630;2023-08-06T03:12:03;7.03;;;4.23;;
74967;SDS011;63523;51.880;12.630;2023-08-06T03:14:30;9.13;;;5.40;;
74967;SDS011;63523;51.880;12.630;2023-08-06T03:16:55;9.10;;;5.37;;
74967;SDS011;63523;51.880;12.630;2023-08-06T03:19:20;8.50;;;4.87;;
74967;SDS011;63523;51.880;12.630;2023-08-06T03:21:46;8.43;;;4.33;;
74967;SDS011;63523;51.880;12.630;2023-08-06T03:24:13;8.70;;;4.90;;
74967;SDS011;63523;51.880;12.630;2023-08-06T03:26:38;8.82;;;5.07;;
74967;SDS011;63523;51.880;12.630;2023-08-06T03:29:04;9.30;;;4.90;;
74967;SDS011;63523;51.880;12.630;2023-08-06T03:31:29;7.33;;;4.23;;
74967;SDS011;63523;51.880;12.630;2023-08-06T03:33:54;8.30;;;4.60;;
74967;SDS011;63523;51.880;12.630;2023-08-06T03:36:19;9.27;;;5.10;;
74967;SDS011;63523;51.880;12.630;2023-08-06T03:38:45;9.77;;;5.40;;
74967;SDS011;63523;51.880;12.630;2023-08-06T03:41:10;7.93;;;5.10;;
74967;SDS011;63523;51.880;12.630;2023-08-06T03:43:35;10.30;;;5.10;;
74967;SDS011;63523;51.880;12.630;2023-08-06T03:46:01;10.20;;;4.90;;
74967;SDS011;63523;51.880;12.630;2023-08-06T03:48:26;7.90;;;5.00;;
74967;SDS011;63523;51.880;12.630;2023-08-06T03:50:51;7.90;;;4.93;;
74967;SDS011;63523;51.880;12.630;2023-08-06T03:53:17;9.37;;;5.03;;
74967;SDS011;63523;51.880;12.630;2023-08-06T03:55:42;9.90;;;5.30;;
74967;SDS011;63523;51.880;12.630;2023-08-06T03:58:07;7.87;;;4.80;;
74967;SDS011;63523;51.880;12.630;2023-08-06T04:00:33;9.53;;;5.23;;
74967;SDS011;63523;51.880;12.630;2023-08-06T04:02:58;9.85;;;5.00;;
74967;SDS011;63523;51.880;12.630;2023-08-06T04:05:23;8.30;;;5.10;;
74967;SDS011;63523;51.880;12.630;2023-08-06T04:07:49;8.53;;;4.93;;
74967;SDS011;63523;51.880;12.630;2023-08-06T04:10:14;10.10;;;4.77;;
74967;SDS011;63523;51.880;12.630;2023-08-06T04:12:40;8.40;;;5.00;;
74967;SDS011;63523;51.880;12.630;2023-08-06T04:15:05;8.07;;;4.38;;
74967;SDS011;63523;51.880;12.630;2023-08-06T04:17:31;8.00;;;4.80;;
74967;SDS011;63523;51.880;12.630;2023-08-06T04:19:56;7.97;;;4.15;;
74967;SDS011;63523;51.880;12.630;2023-08-06T04:22:24;7.97;;;4.47;;
74967;SDS011;63523;51.880;12.630;2023-08-06T04:24:50;8.45;;;4.78;;
74967;SDS011;63523;51.880;12.630;2023-08-06T04:27:16;9.43;;;4.60;;
74967;SDS011;63523;51.880;12.630;2023-08-06T04:29:43;7.00;;;3.97;;
74967;SDS011;63523;51.880;12.630;2023-08-06T04:32:09;7.67;;;3.90;;
74967;SDS011;63523;51.880;12.630;2023-08-06T04:34:35;7.53;;;4.13;;
74967;SDS011;63523;51.880;12.630;2023-08-06T04:37:01;7.78;;;4.47;;
74967;SDS011;63523;51.880;12.630;2023-08-06T04:39:27;8.60;;;4.18;;
74967;SDS011;63523;51.880;12.630;2023-08-06T04:41:52;7.83;;;4.20;;
74967;SDS011;63523;51.880;12.630;2023-08-06T04:44:18;7.13;;;4.17;;
74967;SDS011;63523;51.880;12.630;2023-08-06T04:46:43;8.23;;;4.60;;
74967;SDS011;63523;51.880;12.630;2023-08-06T04:49:09;9.83;;;5.47;;
74967;SDS011;63523;51.880;12.630;2023-08-06T04:51:34;8.93;;;4.77;;
74967;SDS011;63523;51.880;12.630;2023-08-06T04:53:59;10.13;;;5.10;;
74967;SDS011;63523;51.880;12.630;2023-08-06T04:56:25;8.67;;;5.30;;
74967;SDS011;63523;51.880;12.630;2023-08-06T04:58:50;8.80;;;4.78;;
74967;SDS011;63523;51.880;12.630;2023-08-06T05:01:16;7.80;;;4.83;;
74967;SDS011;63523;51.880;12.630;2023-08-06T05:03:42;8.65;;;5.35;;
74967;SDS011;63523;51.880;12.630;2023-08-06T05:06:07;7.40;;;4.40;;
74967;SDS011;63523;51.880;12.630;2023-08-06T05:08:32;8.63;;;5.03;;
74967;SDS011;63523;51.880;12.630;2023-08-06T05:10:58;8.63;;;4.60;;
74967;SDS011;63523;51.880;12.630;2023-08-06T05:13:23;7.83;;;4.57;;
74967;SDS011;63523;51.880;12.630;2023-08-06T05:15:48;8.70;;;5.10;;
74967;SDS011;63523;51.880;12.630;2023-08-06T05:18:14;7.53;;;4.65;;
74967;SDS011;63523;51.880;12.630;2023-08-06T05:20:40;7.00;;;4.13;;
74967;SDS011;63523;51.880;12.630;2023-08-06T05:23:06;7.80;;;4.07;;
74967;SDS011;63523;51.880;12.630;2023-08-06T05:25:31;9.07;;;4.43;;
74967;SDS011;63523;51.880;12.630;2023-08-06T05:27:56;8.20;;;4.60;;
74967;SDS011;63523;51.880;12.630;2023-08-06T05:30:22;7.40;;;3.93;;
74967;SDS011;63523;51.880;12.630;2023-08-06T05:32:47;8.33;;;4.23;;
74967;SDS011;63523;51.880;12.630;2023-08-06T05:35:12;7.93;;;4.53;;
74967;SDS011;63523;51.880;12.630;2023-08-06T05:37:38;8.25;;;4.43;;
74967;SDS011;63523;51.880;12.630;2023-08-06T05:40:03;8.67;;;4.57;;
74967;SDS011;63523;51.880;12.630;2023-08-06T05:42:29;8.27;;;4.57;;
74967;SDS011;63523;51.880;12.630;2023-08-06T05:44:54;8.35;;;4.50;;
74967;SDS011;63523;51.880;12.630;2023-08-06T05:47:20;6.83;;;4.13;;
74967;SDS011;63523;51.880;12.630;2023-08-06T05:49:45;7.90;;;4.30;;
74967;SDS011;63523;51.880;12.630;2023-08-06T05:52:10;7.53;;;4.20;;
74967;SDS011;63523;51.880;12.630;2023-08-06T05:54:36;6.77;;;3.90;;
74967;SDS011;63523;51.880;12.630;2023-08-06T05:57:01;6.45;;;3.80;;
74967;SDS011;63523;51.880;12.630;2023-08-06T05:59:27;7.10;;;4.10;;
74967;SDS011;63523;51.880;12.630;2023-08-06T06:01:52;6.70;;;4.07;;
74967;SDS011;63523;51.880;12.630;2023-08-06T06:04:18;6.07;;;3.60;;
74967;SDS011;63523;51.880;12.630;2023-08-06T06:06:43;7.22;;;4.28;;
74967;SDS011;63523;51.880;12.630;2023-08-06T06:09:09;7.30;;;4.23;;
74967;SDS011;63523;51.880;12.630;2023-08-06T06:11:35;7.68;;;3.90;;
74967;SDS011;63523;51.880;12.630;2023-08-06T06:14:00;7.33;;;4.57;;
74967;SDS011;63523;51.880;12.630;2023-08-06T06:16:26;7.50;;;4.27;;
74967;SDS011;63523;51.880;12.630;2023-08-06T06:18:51;7.40;;;4.33;;
74967;SDS011;63523;51.880;12.630;2023-08-06T06:21:16;8.37;;;4.87;;
74967;SDS011;63523;51.880;12.630;2023-08-06T06:23:42;7.28;;;4.30;;
74967;SDS011;63523;51.880;12.630;2023-08-06T06:26:07;8.50;;;4.67;;
74967;SDS011;63523;51.880;12.630;2023-08-06T06:28:33;8.47;;;4.77;;
74967;SDS011;63523;51.880;12.630;2023-08-06T06:31:01;7.67;;;4.03;;
74967;SDS011;63523;51.880;12.630;2023-08-06T06:33:27;7.80;;;4.50;;
74967;SDS011;63523;51.880;12.630;2023-08-06T06:35:52;7.53;;;4.77;;
74967;SDS011;63523;51.880;12.630;2023-08-06T06:38:17;8.40;;;4.60;;
74967;SDS011;63523;51.880;12.630;2023-08-06T06:40:43;8.35;;;4.68;;
74967;SDS011;63523;51.880;12.630;2023-08-06T06:43:08;7.57;;;4.83;;
74967;SDS011;63523;51.880;12.630;2023-08-06T06:45:33;7.50;;;4.50;;
74967;SDS011;63523;51.880;12.630;2023-08-06T06:47:59;8.57;;;5.20;;
74967;SDS011;63523;51.880;12.630;2023-08-06T06:50:24;8.97;;;5.30;;
74967;SDS011;63523;51.880;12.630;2023-08-06T06:52:51;7.57;;;4.28;;
74967;SDS011;63523;51.880;12.630;2023-08-06T06:55:16;8.73;;;5.20;;
74967;SDS011;63523;51.880;12.630;2023-08-06T06:57:41;7.97;;;5.07;;
74967;SDS011;63523;51.880;12.630;2023-08-06T07:00:07;7.73;;;4.77;;
74967;SDS011;63523;51.880;12.630;2023-08-06T07:02:32;8.53;;;4.60;;
74967;SDS011;63523;51.880;12.630;2023-08-06T07:04:57;7.93;;;4.75;;
74967;SDS011;63523;51.880;12.630;2023-08-06T07:07:23;8.90;;;5.63;;
74967;SDS011;63523;51.880;12.630;2023-08-06T07:09:48;7.77;;;4.43;;
74967;SDS011;63523;51.880;12.630;2023-08-06T07:12:13;7.80;;;4.90;;
74967;SDS011;63523;51.880;12.630;2023-08-06T07:14:39;8.07;;;4.40;;
74967;SDS011;63523;51.880;12.630;2023-08-06T07:17:04;6.30;;;4.10;;
74967;SDS011;63523;51.880;12.630;2023-08-06T07:19:30;7.40;;;4.43;;
74967;SDS011;63523;51.880;12.630;2023-08-06T07:21:55;7.77;;;4.67;;
74967;SDS011;63523;51.880;12.630;2023-08-06T07:24:21;6.67;;;3.97;;
74967;SDS011;63523;51.880;12.630;2023-08-06T07:26:46;7.43;;;4.80;;
74967;SDS011;63523;51.880;12.630;2023-08-06T07:29:11;7.95;;;4.60;;
74967;SDS011;63523;51.880;12.630;2023-08-06T07:31:37;7.50;;;4.20;;
74967;SDS011;63523;51.880;12.630;2023-08-06T07:34:02;7.00;;;4.33;;
74967;SDS011;63523;51.880;12.630;2023-08-06T07:36:28;6.93;;;4.20;;
74967;SDS011;63523;51.880;12.630;2023-08-06T07:38:53;7.80;;;4.70;;
74967;SDS011;63523;51.880;12.630;2023-08-06T07:41:20;7.35;;;4.50;;
74967;SDS011;63523;51.880;12.630;2023-08-06T07:43:46;8.38;;;4.75;;
74967;SDS011;63523;51.880;12.630;2023-08-06T07:46:12;6.97;;;4.50;;
74967;SDS011;63523;51.880;12.630;2023-08-06T07:48:38;7.88;;;4.68;;
74967;SDS011;63523;51.880;12.630;2023-08-06T07:51:03;7.40;;;4.77;;
74967;SDS011;63523;51.880;12.630;2023-08-06T07:53:29;8.23;;;4.80;;
74967;SDS011;63523;51.880;12.630;2023-08-06T07:55:54;7.63;;;4.63;;
74967;SDS011;63523;51.880;12.630;2023-08-06T07:58:20;8.27;;;4.88;;
74967;SDS011;63523;51.880;12.630;2023-08-06T08:00:45;7.13;;;4.57;;
74967;SDS011;63523;51.880;12.630;2023-08-06T08:03:12;7.63;;;4.72;;
74967;SDS011;63523;51.880;12.630;2023-08-06T08:05:40;8.30;;;5.47;;
74967;SDS011;63523;51.880;12.630;2023-08-06T08:08:06;8.25;;;5.40;;
74967;SDS011;63523;51.880;12.630;2023-08-06T08:10:32;8.73;;;5.40;;
74967;SDS011;63523;51.880;12.630;2023-08-06T08:12:58;9.20;;;5.47;;
74967;SDS011;63523;51.880;12.630;2023-08-06T08:15:24;8.30;;;4.97;;
74967;SDS011;63523;51.880;12.630;2023-08-06T08:17:51;8.40;;;5.40;;
74967;SDS011;63523;51.880;12.630;2023-08-06T08:20:17;8.17;;;5.20;;
74967;SDS011;63523;51.880;12.630;2023-08-06T08:22:42;8.32;;;5.15;;
74967;SDS011;63523;51.880;12.630;2023-08-06T08:25:08;8.57;;;5.67;;
74967;SDS011;63523;51.880;12.630;2023-08-06T08:27:33;8.37;;;5.30;;
74967;SDS011;63523;51.880;12.630;2023-08-06T08:29:58;7.60;;;5.03;;
74967;SDS011;63523;51.880;12.630;2023-08-06T08:32:24;7.25;;;4.90;;
74967;SDS011;63523;51.880;12.630;2023-08-06T08:34:49;8.53;;;5.50;;
74967;SDS011;63523;51.880;12.630;2023-08-06T08:37:14;7.53;;;5.17;;
74967;SDS011;63523;51.880;12.630;2023-08-06T08:39:40;9.20;;;5.37;;
74967;SDS011;63523;51.880;12.630;2023-08-06T08:42:06;9.20;;;5.80;;
74967;SDS011;63523;51.880;12.630;2023-08-06T08:44:32;8.50;;;5.20;;
74967;SDS011;63523;51.880;12.630;2023-08-06T08:46:58;7.75;;;5.10;;
74967;SDS011;63523;51.880;12.630;2023-08-06T08:49:24;10.35;;;5.88;;
74967;SDS011;63523;51.880;12.630;2023-08-06T08:51:52;8.23;;;5.20;;
74967;SDS011;63523;51.880;12.630;2023-08-06T08:54:20;8.68;;;5.68;;
74967;SDS011;63523;51.880;12.630;2023-08-06T08:56:48;8.80;;;5.82;;
74967;SDS011;63523;51.880;12.630;2023-08-06T08:59:13;8.50;;;5.00;;
74967;SDS011;63523;51.880;12.630;2023-08-06T09:01:39;8.70;;;5.67;;
74967;SDS011;63523;51.880;12.630;2023-08-06T09:04:05;9.85;;;6.43;;
74967;SDS011;63523;51.880;12.630;2023-08-06T09:06:33;9.65;;;6.03;;
74967;SDS011;63523;51.880;12.630;2023-08-06T09:09:09;11.05;;;6.47;;
74967;SDS011;63523;51.880;12.630;2023-08-06T09:11:44;9.70;;;6.60;;
74967;SDS011;63523;51.880;12.630;2023-08-06T09:14:10;11.57;;;6.97;;
74967;SDS011;63523;51.880;12.630;2023-08-06T09:16:37;11.38;;;7.43;;
74967;SDS011;63523;51.880;12.630;2023-08-06T09:19:12;10.50;;;6.47;;
74967;SDS011;63523;51.880;12.630;2023-08-06T09:21:40;12.07;;;7.13;;
74967;SDS011;63523;51.880;12.630;2023-08-06T09:24:10;9.70;;;6.05;;
74967;SDS011;63523;51.880;12.630;2023-08-06T09:26:42;11.70;;;6.40;;
74967;SDS011;63523;51.880;12.630;2023-08-06T09:29:09;10.45;;;6.60;;
74967;SDS011;63523;51.880;12.630;2023-08-06T09:31:48;12.18;;;7.13;;
74967;SDS011;63523;51.880;12.630;2023-08-06T09:34:19;13.45;;;7.90;;
74967;SDS011;63523;51.880;12.630;2023-08-06T09:36:50;9.95;;;6.40;;
74967;SDS011;63523;51.880;12.630;2023-08-06T09:39:17;10.20;;;6.70;;
74967;SDS011;63523;51.880;12.630;2023-08-06T09:41:44;12.45;;;7.72;;
74967;SDS011;63523;51.880;12.630;2023-08-06T09:44:18;12.18;;;7.18;;
74967;SDS011;63523;51.880;12.630;2023-08-06T09:46:48;13.63;;;8.23;;
74967;SDS011;63523;51.880;12.630;2023-08-06T09:49:14;11.10;;;6.78;;
74967;SDS011;63523;51.880;12.630;2023-08-06T09:51:40;11.97;;;7.50;;
74967;SDS011;63523;51.880;12.630;2023-08-06T09:54:06;12.05;;;7.82;;
74967;SDS011;63523;51.880;12.630;2023-08-06T09:56:33;11.20;;;7.47;;
74967;SDS011;63523;51.880;12.630;2023-08-06T09:59:02;13.30;;;8.55;;
74967;SDS011;63523;51.880;12.630;2023-08-06T10:01:31;13.20;;;8.13;;
74967;SDS011;63523;51.880;12.630;2023-08-06T10:03:58;13.23;;;8.30;;
74967;SDS011;63523;51.880;12.630;2023-08-06T10:06:25;18.95;;;10.00;;
74967;SDS011;63523;51.880;12.630;2023-08-06T10:08:51;13.50;;;8.63;;
74967;SDS011;63523;51.880;12.630;2023-08-06T10:11:17;17.33;;;10.53;;
74967;SDS011;63523;51.880;12.630;2023-08-06T10:13:42;19.33;;;11.13;;
74967;SDS011;63523;51.880;12.630;2023-08-06T10:16:08;18.48;;;11.05;;
74967;SDS011;63523;51.880;12.630;2023-08-06T10:18:35;14.75;;;8.57;;
74967;SDS011;63523;51.880;12.630;2023-08-06T10:21:04;13.73;;;8.43;;
74967;SDS011;63523;51.880;12.630;2023-08-06T10:23:33;16.17;;;9.88;;
74967;SDS011;63523;51.880;12.630;2023-08-06T10:26:00;26.23;;;14.10;;
74967;SDS011;63523;51.880;12.630;2023-08-06T10:28:33;16.77;;;9.43;;
74967;SDS011;63523;51.880;12.630;2023-08-06T10:31:02;19.05;;;9.73;;
74967;SDS011;63523;51.880;12.630;2023-08-06T10:33:40;14.82;;;8.77;;
74967;SDS011;63523;51.880;12.630;2023-08-06T10:36:10;14.40;;;8.57;;
74967;SDS011;63523;51.880;12.630;2023-08-06T10:38:43;14.17;;;8.90;;
74967;SDS011;63523;51.880;12.630;2023-08-06T10:41:14;19.75;;;10.88;;
74967;SDS011;63523;51.880;12.630;2023-08-06T10:44:06;21.02;;;11.80;;
74967;SDS011;63523;51.880;12.630;2023-08-06T10:46:35;18.88;;;9.75;;
74967;SDS011;63523;51.880;12.630;2023-08-06T10:49:02;14.70;;;8.45;;
74967;SDS011;63523;51.880;12.630;2023-08-06T10:51:28;14.07;;;9.00;;
74967;SDS011;63523;51.880;12.630;2023-08-06T10:53:53;11.25;;;6.28;;
74967;SDS011;63523;51.880;12.630;2023-08-06T10:56:19;16.43;;;9.03;;
74967;SDS011;63523;51.880;12.630;2023-08-06T10:58:51;16.30;;;8.82;;
74967;SDS011;63523;51.880;12.630;2023-08-06T11:01:18;13.25;;;7.28;;
74967;SDS011;63523;51.880;12.630;2023-08-06T11:03:44;15.20;;;8.67;;
74967;SDS011;63523;51.880;12.630;2023-08-06T11:06:16;14.50;;;7.40;;
74967;SDS011;63523;51.880;12.630;2023-08-06T11:08:46;11.57;;;6.20;;
74967;SDS011;63523;51.880;12.630;2023-08-06T11:11:13;10.77;;;6.68;;
74967;SDS011;63523;51.880;12.630;2023-08-06T11:13:40;9.47;;;5.47;;
74967;SDS011;63523;51.880;12.630;2023-08-06T11:16:11;8.32;;;5.07;;
74967;SDS011;63523;51.880;12.630;2023-08-06T11:18:38;11.68;;;6.20;;
74967;SDS011;63523;51.880;12.630;2023-08-06T11:21:04;7.90;;;4.80;;
74967;SDS011;63523;51.880;12.630;2023-08-06T11:23:30;7.10;;;4.00;;
74967;SDS011;63523;51.880;12.630;2023-08-06T11:25:58;6.37;;;3.83;;
74967;SDS011;63523;51.880;12.630;2023-08-06T11:28:23;7.78;;;4.35;;
74967;SDS011;63523;51.880;12.630;2023-08-06T11:30:49;9.20;;;4.47;;
74967;SDS011;63523;51.880;12.630;2023-08-06T11:33:24;7.33;;;3.80;;
74967;SDS011;63523;51.880;12.630;2023-08-06T11:35:56;8.15;;;4.00;;
74967;SDS011;63523;51.880;12.630;2023-08-06T11:38:27;8.10;;;4.10;;
74967;SDS011;63523;51.880;12.630;2023-08-06T11:40:53;7.03;;;4.05;;
74967;SDS011;63523;51.880;12.630;2023-08-06T11:43:19;6.70;;;3.70;;
74967;SDS011;63523;51.880;12.630;2023-08-06T11:45:47;5.83;;;3.57;;
74967;SDS011;63523;51.880;12.630;2023-08-06T11:48:17;5.72;;;3.00;;
74967;SDS011;63523;51.880;12.630;2023-08-06T11:50:43;6.05;;;3.17;;
74967;SDS011;63523;51.880;12.630;2023-08-06T11:53:11;6.00;;;3.10;;
74967;SDS011;63523;51.880;12.630;2023-08-06T11:55:38;6.43;;;3.13;;
74967;SDS011;63523;51.880;12.630;2023-08-06T11:58:03;6.27;;;3.03;;
74967;SDS011;63523;51.880;12.630;2023-08-06T12:00:29;5.38;;;2.90;;
74967;SDS011;63523;51.880;12.630;2023-08-06T12:02:55;4.60;;;2.70;;
74967;SDS011;63523;51.880;12.630;2023-08-06T12:05:21;6.55;;;2.67;;
74967;SDS011;63523;51.880;12.630;2023-08-06T12:07:55;3.80;;;2.00;;
74967;SDS011;63523;51.880;12.630;2023-08-06T12:10:22;5.10;;;2.10;;
74967;SDS011;63523;51.880;12.630;2023-08-06T12:12:48;5.90;;;2.23;;
74967;SDS011;63523;51.880;12.630;2023-08-06T12:15:15;6.57;;;2.72;;
74967;SDS011;63523;51.880;12.630;2023-08-06T12:17:40;4.30;;;2.23;;
74967;SDS011;63523;51.880;12.630;2023-08-06T12:20:06;5.63;;;2.35;;
74967;SDS011;63523;51.880;12.630;2023-08-06T12:22:32;6.80;;;2.60;;
74967;SDS011;63523;51.880;12.630;2023-08-06T12:25:02;5.28;;;2.60;;
74967;SDS011;63523;51.880;12.630;2023-08-06T12:27:31;5.45;;;2.70;;
74967;SDS011;63523;51.880;12.630;2023-08-06T12:29:57;5.83;;;2.63;;
74967;SDS011;63523;51.880;12.630;2023-08-06T12:32:22;5.17;;;2.07;;
74967;SDS011;63523;51.880;12.630;2023-08-06T12:34:47;4.10;;;2.17;;
74967;SDS011;63523;51.880;12.630;2023-08-06T12:37:13;5.10;;;2.53;;
74967;SDS011;63523;51.880;12.630;2023-08-06T12:39:38;5.60;;;2.50;;
74967;SDS011;63523;51.880;12.630;2023-08-06T12:42:04;4.73;;;2.50;;
74967;SDS011;63523;51.880;12.630;2023-08-06T12:44:31;6.53;;;3.38;;
74967;SDS011;63523;51.880;12.630;2023-08-06T12:46:57;4.85;;;2.50;;
74967;SDS011;63523;51.880;12.630;2023-08-06T12:49:22;4.73;;;2.20;;
74967;SDS011;63523;51.880;12.630;2023-08-06T12:51:49;4.20;;;2.42;;
74967;SDS011;63523;51.880;12.630;2023-08-06T12:54:19;5.18;;;2.47;;
74967;SDS011;63523;51.880;12.630;2023-08-06T12:56:45;5.72;;;2.53;;
74967;SDS011;63523;51.880;12.630;2023-08-06T12:59:13;6.47;;;2.33;;
74967;SDS011;63523;51.880;12.630;2023-08-06T13:01:39;5.78;;;2.72;;
74967;SDS011;63523;51.880;12.630;2023-08-06T13:04:04;4.70;;;2.50;;
74967;SDS011;63523;51.880;12.630;2023-08-06T13:06:29;6.83;;;2.80;;
74967;SDS011;63523;51.880;12.630;2023-08-06T13:08:55;5.32;;;2.53;;
74967;SDS011;63523;51.880;12.630;2023-08-06T13:11:21;5.47;;;3.08;;
74967;SDS011;63523;51.880;12.630;2023-08-06T13:13:47;6.37;;;3.87;;
74967;SDS011;63523;51.880;12.630;2023-08-06T13:16:12;7.40;;;4.10;;
74967;SDS011;63523;51.880;12.630;2023-08-06T13:18:37;5.63;;;3.03;;
74967;SDS011;63523;51.880;12.630;2023-08-06T13:21:03;5.00;;;3.03;;
74967;SDS011;63523;51.880;12.630;2023-08-06T13:23:28;7.20;;;3.80;;
74967;SDS011;63523;51.880;12.630;2023-08-06T13:25:54;6.60;;;3.60;;
74967;SDS011;63523;51.880;12.630;2023-08-06T13:28:19;8.43;;;3.90;;
74967;SDS011;63523;51.880;12.630;2023-08-06T13:30:45;6.50;;;3.80;;
74967;SDS011;63523;51.880;12.630;2023-08-06T13:33:10;6.00;;;3.30;;
74967;SDS011;63523;51.880;12.630;2023-08-06T13:35:36;6.05;;;2.97;;
74967;SDS011;63523;51.880;12.630;2023-08-06T13:38:02;7.18;;;3.63;;
74967;SDS011;63523;51.880;12.630;2023-08-06T13:40:31;5.90;;;2.88;;
74967;SDS011;63523;51.880;12.630;2023-08-06T13:42:57;5.63;;;2.50;;
74967;SDS011;63523;51.880;12.630;2023-08-06T13:45:23;5.30;;;2.60;;
74967;SDS011;63523;51.880;12.630;2023-08-06T13:47:48;6.57;;;3.10;;
74967;SDS011;63523;51.880;12.630;2023-08-06T13:50:14;6.00;;;2.83;;
74967;SDS011;63523;51.880;12.630;2023-08-06T13:52:39;5.20;;;3.00;;
74967;SDS011;63523;51.880;12.630;2023-08-06T13:55:05;4.30;;;2.10;;
74967;SDS011;63523;51.880;12.630;2023-08-06T13:57:31;3.83;;;1.50;;
74967;SDS011;63523;51.880;12.630;2023-08-06T13:59:57;3.80;;;1.53;;
74967;SDS011;63523;51.880;12.630;2023-08-06T14:02:22;4.00;;;1.60;;
74967;SDS011;63523;51.880;12.630;2023-08-06T14:04:48;3.75;;;1.55;;
74967;SDS011;63523;51.880;12.630;2023-08-06T14:07:13;4.27;;;2.10;;
74967;SDS011;63523;51.880;12.630;2023-08-06T14:09:38;3.80;;;1.80;;
74967;SDS011;63523;51.880;12.630;2023-08-06T14:12:05;4.60;;;1.80;;
74967;SDS011;63523;51.880;12.630;2023-08-06T14:14:30;4.10;;;1.70;;
74967;SDS011;63523;51.880;12.630;2023-08-06T14:16:56;4.38;;;1.67;;
74967;SDS011;63523;51.880;12.630;2023-08-06T14:19:21;4.90;;;1.57;;
74967;SDS011;63523;51.880;12.630;2023-08-06T14:21:46;3.63;;;1.40;;
74967;SDS011;63523;51.880;12.630;2023-08-06T14:24:12;4.13;;;1.50;;
74967;SDS011;63523;51.880;12.630;2023-08-06T14:26:38;3.90;;;1.90;;
74967;SDS011;63523;51.880;12.630;2023-08-06T14:29:03;6.00;;;2.33;;
74967;SDS011;63523;51.880;12.630;2023-08-06T14:31:28;4.80;;;2.30;;
74967;SDS011;63523;51.880;12.630;2023-08-06T14:33:54;4.63;;;2.30;;
74967;SDS011;63523;51.880;12.630;2023-08-06T14:36:19;5.50;;;2.77;;